Time;durP1;ratioP1;P1;durP2;ratioP2;P2;SDS_P1;SDS_P2;PMS_P1;PMS_P2;Temp;Humidity;BMP_temperature;BMP_pressure;BME280_temperature;BME280_humidity;BME280_pressure;Samples;Min_cycle;Max_cycle;Signal;HPM_P1;HPM_P2
2023/04/12 00:01:16;;;;;;;43.85;24.83;;;;;;;8.93;63.91;149542.66;5083965;28;20248;-66
2023/04/12 00:03:41;;;;;;;42.95;25.17;;;;;;;8.96;64.37;149550.38;5101402;28;20042;-66
2023/04/12 00:06:09;;;;;;;43.47;26.27;;;;;;;8.92;64.16;149538.81;5091120;28;20313;-66
2023/04/12 00:08:34;;;;;;;44.28;24.38;;;;;;;8.95;63.83;149546.47;5091990;28;20044;-65
2023/04/12 00:11:02;;;;;;;44.55;22.75;;;;;;;8.92;64.34;149538.81;5100262;28;20039;-69
2023/04/12 00:13:28;;;;;;;36.95;24.23;;;;;;;8.98;64.07;149554.22;5083750;28;20028;-66
2023/04/12 00:15:54;;;;;;;38.63;24.08;;;;;;;8.94;64.67;149545.22;5102171;28;20032;-66
2023/04/12 00:18:23;;;;;;;41.38;25.52;;;;;;;8.92;64.75;149538.81;5088464;28;20242;-66
2023/04/12 00:20:51;;;;;;;34.85;23.38;;;;;;;8.90;63.45;149534.97;5093766;28;20028;-66
2023/04/12 00:23:17;;;;;;;41.80;24.90;;;;;;;8.88;64.66;149529.88;5098104;28;20056;-66
2023/04/12 00:25:44;;;;;;;41.75;23.40;;;;;;;8.85;63.28;149522.19;5084435;28;20035;-66
2023/04/12 00:28:10;;;;;;;38.47;24.65;;;;;;;8.85;63.63;149522.19;5102496;28;20178;-66
2023/04/12 00:30:35;;;;;;;35.42;24.40;;;;;;;8.83;63.47;149515.78;5086799;28;20111;-67
2023/04/12 00:33:01;;;;;;;34.97;23.08;;;;;;;8.82;63.41;149514.47;5090097;28;20028;-67
2023/04/12 00:35:27;;;;;;;44.85;24.50;;;;;;;8.80;63.33;149509.38;5083329;28;20029;-66
2023/04/12 00:37:53;;;;;;;35.33;23.92;;;;;;;8.78;63.40;149504.25;5101158;28;20065;-67
2023/04/12 00:40:19;;;;;;;40.15;23.45;;;;;;;8.77;63.31;149501.69;5083331;28;20031;-66
2023/04/12 00:42:45;;;;;;;42.85;25.20;;;;;;;8.71;64.38;149487.59;5082952;28;20024;-65
2023/04/12 00:45:11;;;;;;;44.65;24.77;;;;;;;8.73;64.07;149491.44;5096165;28;20205;-66
2023/04/12 00:47:38;;;;;;;38.85;23.67;;;;;;;8.69;63.80;149482.44;5095192;28;20052;-65
2023/04/12 00:50:05;;;;;;;39.63;24.88;;;;;;;8.68;63.48;149479.94;5086836;28;20020;-66
2023/04/12 00:52:35;;;;;;;36.67;24.35;;;;;;;8.54;62.78;149445.34;5099829;28;20091;-67
2023/04/12 00:55:03;;;;;;;37.28;24.52;;;;;;;8.52;63.47;149438.94;5082759;28;20039;-67
2023/04/12 00:57:38;;;;;;;37.75;24.40;;;;;;;8.56;64.65;149449.19;5084771;28;20108;-66
2023/04/12 01:00:12;;;;;;;40.80;24.00;;;;;;;8.58;64.22;149455.59;5091638;28;20091;-65
2023/04/12 01:02:41;;;;;;;34.10;24.88;;;;;;;8.50;64.22;149433.84;5081829;28;20036;-66
2023/04/12 01:05:08;;;;;;;37.10;25.23;;;;;;;8.53;63.53;149441.50;5082804;28;20040;-65
2023/04/12 01:07:46;;;;;;;37.05;24.50;;;;;;;8.51;64.39;149437.66;5085055;28;20032;-66
2023/04/12 01:10:26;;;;;;;43.13;24.27;;;;;;;8.46;65.09;149426.16;5094509;28;20043;-67
2023/04/12 01:13:40;;;;;;;35.78;24.48;;;;;;;8.33;65.27;149392.78;5094199;28;20025;-66
2023/04/12 01:16:33;;;;;;;46.97;24.52;;;;;;;8.43;64.97;149418.38;5094639;28;20335;-65
2023/04/12 01:19:03;;;;;;;39.30;24.35;;;;;;;8.28;65.55;149380.03;5093102;28;20032;-65
2023/04/12 01:21:57;;;;;;;40.10;25.45;;;;;;;8.35;65.42;149397.94;5085557;28;20032;-65
2023/04/12 01:24:48;;;;;;;43.35;24.73;;;;;;;8.33;65.39;149391.53;5082641;28;20275;-66
2023/04/12 01:27:58;;;;;;;41.58;25.48;;;;;;;8.27;66.40;149377.44;5086160;28;20127;-67
2023/04/12 01:30:27;;;;;;;38.58;24.77;;;;;;;8.12;66.17;149341.59;5098532;28;20037;-66
2023/04/12 01:32:55;;;;;;;37.60;24.95;;;;;;;8.17;66.27;149351.84;5089146;28;20029;-67
2023/04/12 01:35:26;;;;;;;36.75;24.63;;;;;;;8.05;65.78;149323.69;5106806;28;20024;-67
2023/04/12 01:37:53;;;;;;;42.92;25.40;;;;;;;8.10;66.21;149336.47;5089199;28;20032;-67
2023/04/12 01:40:19;;;;;;;40.72;26.13;;;;;;;8.16;65.26;149349.28;5097403;28;20027;-66
2023/04/12 01:42:44;;;;;;;37.50;24.02;;;;;;;8.08;65.26;149330.06;5106578;28;20251;-66
2023/04/12 01:45:10;;;;;;;32.40;24.00;;;;;;;8.06;66.34;149326.22;5106201;28;20107;-67
2023/04/12 01:47:37;;;;;;;39.38;24.83;;;;;;;8.08;65.56;149331.38;5106814;28;20129;-66
2023/04/12 01:50:26;;;;;;;36.40;24.98;;;;;;;8.03;65.86;149317.28;5088055;28;20020;-66
2023/04/12 01:52:59;;;;;;;33.13;24.33;;;;;;;8.05;65.31;149322.38;5085898;28;20063;-65
2023/04/12 01:55:26;;;;;;;37.28;24.60;;;;;;;8.03;65.92;149317.28;5086195;28;20075;-65
2023/04/12 01:57:52;;;;;;;38.95;25.20;;;;;;;8.05;65.72;149323.69;5093776;28;20027;-66
2023/04/12 02:00:19;;;;;;;39.17;26.30;;;;;;;8.05;66.48;149323.69;5089697;28;20336;-65
2023/04/12 02:02:44;;;;;;;39.78;25.73;;;;;;;8.02;66.20;149315.97;5106301;28;20312;-65
2023/04/12 02:05:11;;;;;;;35.05;25.58;;;;;;;7.98;65.93;149305.78;5086677;28;20065;-65
2023/04/12 02:07:38;;;;;;;43.90;25.45;;;;;;;7.98;66.05;149304.47;5100532;28;20050;-65
2023/04/12 02:10:04;;;;;;;38.33;24.42;;;;;;;7.96;66.49;149300.63;5096102;28;20028;-66
2023/04/12 02:12:30;;;;;;;42.65;26.13;;;;;;;7.89;66.37;149282.72;5091141;28;20150;-65
2023/04/12 02:14:57;;;;;;;49.65;26.83;;;;;;;7.93;66.36;149292.97;5105757;28;20024;-66
2023/04/12 02:17:22;;;;;;;45.08;28.83;;;;;;;7.85;66.75;149272.47;5085995;28;20063;-64
2023/04/12 02:19:48;;;;;;;45.30;27.63;;;;;;;7.90;66.14;149285.28;5101467;28;20020;-65
2023/04/12 02:22:13;;;;;;;43.70;27.80;;;;;;;7.86;66.28;149275.03;5094679;28;20036;-65
2023/04/12 02:24:39;;;;;;;45.58;26.80;;;;;;;7.87;66.68;149277.63;5092085;28;20026;-65
2023/04/12 02:27:05;;;;;;;38.05;26.00;;;;;;;7.88;65.71;149281.47;5105590;28;20114;-66
2023/04/12 02:29:30;;;;;;;47.55;26.40;;;;;;;7.85;66.30;149273.78;5105821;28;20239;-66
2023/04/12 02:31:56;;;;;;;38.28;25.33;;;;;;;7.82;67.12;149264.81;5095523;28;20221;-66
2023/04/12 02:34:22;;;;;;;47.53;28.65;;;;;;;7.81;66.62;149262.22;5085578;28;20059;-66
2023/04/12 02:36:48;;;;;;;43.65;26.58;;;;;;;7.73;65.63;149243.06;5088601;28;20048;-64
2023/04/12 02:39:17;;;;;;;50.40;28.63;;;;;;;7.64;66.67;149221.31;5085368;28;20120;-65
2023/04/12 02:41:44;;;;;;;39.55;27.25;;;;;;;7.71;66.36;149239.22;5084644;28;20308;-65
2023/04/12 02:44:10;;;;;;;41.17;26.13;;;;;;;7.67;67.02;149228.97;5085361;28;20028;-66
2023/04/12 02:46:36;;;;;;;42.05;26.38;;;;;;;7.62;66.85;149214.91;5098104;28;20055;-65
2023/04/12 02:49:01;;;;;;;40.92;25.98;;;;;;;7.65;66.98;149223.84;5096042;28;20328;-66
2023/04/12 02:51:27;;;;;;;40.35;25.58;;;;;;;7.70;67.42;149235.38;5089357;28;20069;-65
2023/04/12 02:53:53;;;;;;;45.67;27.48;;;;;;;7.70;66.84;149236.66;5105489;28;20344;-66
2023/04/12 02:56:20;;;;;;;38.72;26.55;;;;;;;7.70;67.31;149236.66;5085046;28;20035;-66
2023/04/12 02:58:46;;;;;;;43.22;28.13;;;;;;;7.69;66.66;149232.81;5094692;28;20032;-66
2023/04/12 03:01:13;;;;;;;52.65;29.08;;;;;;;7.69;66.65;149232.81;5083805;28;20020;-64
2023/04/12 03:03:39;;;;;;;45.05;26.45;;;;;;;7.71;67.02;149237.91;5090915;28;20113;-66
2023/04/12 03:06:07;;;;;;;44.53;27.35;;;;;;;7.64;66.96;149221.31;5103889;28;20035;-65
2023/04/12 03:08:33;;;;;;;39.70;27.95;;;;;;;7.75;66.65;149249.47;5066856;28;20021;-64
2023/04/12 03:10:59;;;;;;;52.20;28.85;;;;;;;7.71;66.57;149239.22;5101519;28;20026;-65
2023/04/12 03:13:24;;;;;;;45.67;29.40;;;;;;;7.82;65.94;149266.06;5092756;28;20131;-66
2023/04/12 03:15:57;;;;;;;48.10;27.65;;;;;;;7.78;66.76;149257.13;5089081;28;20210;-65
2023/04/12 03:18:22;;;;;;;44.90;27.15;;;;;;;7.57;66.29;149203.41;5088280;28;20040;-65
2023/04/12 03:20:49;;;;;;;41.53;27.20;;;;;;;7.65;66.77;149223.84;5104532;28;20073;-65
2023/04/12 03:23:14;;;;;;;46.15;28.95;;;;;;;7.77;66.84;149253.28;5085419;28;20079;-65
2023/04/12 03:25:41;;;;;;;53.33;28.85;;;;;;;7.84;66.89;149271.22;5098884;28;20193;-65
2023/04/12 03:28:07;;;;;;;44.42;28.05;;;;;;;7.78;66.72;149255.81;5094814;28;20033;-66
2023/04/12 03:30:33;;;;;;;43.25;27.67;;;;;;;7.97;66.84;149303.22;5089293;28;20096;-66
2023/04/12 03:32:59;;;;;;;38.67;27.23;;;;;;;8.27;64.94;149378.72;5084114;28;20024;-65
2023/04/12 03:35:24;;;;;;;45.85;28.30;;;;;;;8.46;64.77;149424.84;5084084;28;20142;-66
2023/04/12 03:37:50;;;;;;;45.90;27.70;;;;;;;8.68;63.00;149478.63;5083627;28;20029;-67
2023/04/12 03:40:16;;;;;;;46.15;27.15;;;;;;;8.86;62.54;149524.72;5094591;28;20051;-67
2023/04/12 03:42:41;;;;;;;42.90;28.02;;;;;;;8.85;63.08;149520.88;5085311;28;20021;-64
2023/04/12 03:45:07;;;;;;;47.60;28.33;;;;;;;8.93;63.71;149542.66;5084765;28;20051;-65
2023/04/12 03:47:33;;;;;;;49.25;28.15;;;;;;;9.02;62.67;149564.47;5103832;28;20035;-67
2023/04/12 03:50:06;;;;;;;45.33;28.42;;;;;;;8.93;62.72;149542.66;5086832;28;20029;-67
2023/04/12 03:52:32;;;;;;;46.10;28.88;;;;;;;8.98;63.16;149554.22;5082824;28;20123;-65
2023/04/12 03:54:58;;;;;;;49.80;28.60;;;;;;;9.05;62.20;149572.13;5091769;28;20042;-66
2023/04/12 03:57:24;;;;;;;52.88;30.95;;;;;;;9.06;61.78;149573.41;5100666;28;20040;-66
2023/04/12 03:59:50;;;;;;;51.13;30.52;;;;;;;9.05;62.07;149572.13;5098281;28;20032;-67
2023/04/12 04:02:16;;;;;;;43.97;28.67;;;;;;;9.19;61.79;149605.44;5103883;28;20039;-66
2023/04/12 04:04:42;;;;;;;49.75;31.92;;;;;;;9.18;60.43;149602.84;5089376;28;20217;-67
2023/04/12 04:07:08;;;;;;;46.80;31.63;;;;;;;9.28;61.24;149629.78;5092811;28;20039;-66
2023/04/12 04:09:33;;;;;;;49.65;30.95;;;;;;;9.06;61.93;149574.66;5098958;28;20032;-67
2023/04/12 04:12:00;;;;;;;53.92;31.02;;;;;;;9.29;61.53;149632.34;5083561;28;20024;-65
2023/04/12 04:14:26;;;;;;;55.42;30.65;;;;;;;9.43;61.83;149666.91;5083672;28;20025;-66
2023/04/12 04:16:52;;;;;;;57.05;33.35;;;;;;;9.40;61.47;149657.97;5098675;28;20028;-66
2023/04/12 04:19:17;;;;;;;54.05;31.02;;;;;;;9.50;62.21;149683.56;5092824;28;20055;-66
2023/04/12 04:21:43;;;;;;;54.90;31.02;;;;;;;9.57;61.53;149700.25;5088934;28;20044;-67
2023/04/12 04:24:10;;;;;;;50.90;32.28;;;;;;;9.66;61.43;149723.28;5102438;28;20083;-65
2023/04/12 04:26:37;;;;;;;51.03;32.65;;;;;;;9.79;60.50;149756.63;5081763;28;20262;-66
2023/04/12 04:29:03;;;;;;;54.65;32.92;;;;;;;9.90;60.03;149783.53;5099771;28;20024;-66
2023/04/12 04:31:33;;;;;;;49.28;32.83;;;;;;;10.01;60.23;149811.72;5097105;28;20027;-66
2023/04/12 04:34:05;;;;;;;55.03;33.35;;;;;;;10.12;60.19;149838.69;5095093;28;20028;-66
2023/04/12 04:36:36;;;;;;;58.63;34.75;;;;;;;10.23;59.85;149864.31;5083057;28;20031;-64
2023/04/12 04:39:03;;;;;;;52.08;34.33;;;;;;;10.38;59.37;149901.56;5082889;28;20020;-67
2023/04/12 04:41:33;;;;;;;61.28;36.13;;;;;;;10.44;57.58;149918.19;5103390;28;20028;-65
2023/04/12 04:44:03;;;;;;;59.13;34.90;;;;;;;10.57;57.25;149949.00;5086552;28;20028;-68
2023/04/12 04:46:29;;;;;;;66.13;37.05;;;;;;;10.67;56.99;149974.63;5093698;28;20353;-66
2023/04/12 04:48:55;;;;;;;67.75;36.50;;;;;;;10.79;54.88;150005.44;5095806;28;20035;-66
2023/04/12 04:51:21;;;;;;;73.22;36.15;;;;;;;10.94;56.57;150041.34;5085535;28;20040;-66
2023/04/12 04:53:46;;;;;;;96.15;36.42;;;;;;;11.04;56.41;150066.97;5103133;28;20064;-66
2023/04/12 04:56:12;;;;;;;78.20;35.63;;;;;;;11.16;56.57;150096.47;5084993;28;20028;-65
2023/04/12 04:58:38;;;;;;;70.47;36.30;;;;;;;11.23;55.46;150115.75;5091346;28;20062;-66
2023/04/12 05:01:04;;;;;;;115.07;38.90;;;;;;;11.37;55.22;150150.41;5081582;28;20028;-66
2023/04/12 05:03:32;;;;;;;52.80;34.00;;;;;;;11.48;52.84;150176.06;5082362;28;20036;-67
2023/04/12 05:06:00;;;;;;;53.00;31.50;;;;;;;11.54;51.36;150191.44;5082764;28;20028;-68
2023/04/12 05:08:27;;;;;;;59.60;33.90;;;;;;;11.60;51.99;150205.56;5102449;28;20138;-64
2023/04/12 05:10:54;;;;;;;75.38;37.13;;;;;;;11.74;53.07;150241.50;5087969;28;20325;-65
2023/04/12 05:13:21;;;;;;;51.75;33.53;;;;;;;11.89;50.32;150278.75;5094319;28;20027;-66
2023/04/12 05:15:47;;;;;;;55.47;33.03;;;;;;;12.05;51.08;150319.84;5096898;28;20331;-66
2023/04/12 05:18:13;;;;;;;65.03;33.72;;;;;;;12.04;48.69;150317.31;5083663;28;20036;-66
2023/04/12 05:20:40;;;;;;;46.25;28.98;;;;;;;12.24;49.45;150367.38;5102786;28;20020;-65
2023/04/12 05:23:05;;;;;;;49.33;31.33;;;;;;;12.33;47.46;150387.94;5085922;28;20095;-65
2023/04/12 05:25:31;;;;;;;38.03;25.58;;;;;;;12.33;45.26;150387.94;5094268;28;20178;-66
2023/04/12 05:27:57;;;;;;;40.92;26.40;;;;;;;12.62;45.28;150461.13;5081270;28;20028;-66
2023/04/12 05:30:23;;;;;;;37.53;22.98;;;;;;;12.82;42.07;150511.22;5084957;28;20024;-65
2023/04/12 05:32:49;;;;;;;32.58;22.77;;;;;;;13.03;42.77;150562.63;5085175;28;20088;-65
2023/04/12 05:35:15;;;;;;;33.90;22.70;;;;;;;13.26;40.92;150621.72;5100461;28;20089;-65
2023/04/12 05:37:40;;;;;;;43.25;23.23;;;;;;;13.51;41.37;150682.16;5088013;28;20090;-66
2023/04/12 05:40:08;;;;;;;30.00;21.08;;;;;;;13.55;40.80;150693.75;5090696;28;20197;-65
2023/04/12 05:42:36;;;;;;;36.10;20.95;;;;;;;13.56;41.31;150696.31;5102253;28;20352;-67
2023/04/12 05:45:02;;;;;;;33.28;22.35;;;;;;;13.46;39.09;150671.88;5102323;28;20092;-66
2023/04/12 05:47:29;;;;;;;35.03;21.73;;;;;;;13.82;40.25;150760.56;5082889;28;20088;-66
2023/04/12 05:49:54;;;;;;;31.05;21.88;;;;;;;14.22;38.93;150860.84;5082087;28;20063;-67
2023/04/12 05:52:20;;;;;;;40.25;23.05;;;;;;;14.59;38.18;150952.19;5092634;28;20055;-66
2023/04/12 05:54:46;;;;;;;41.35;21.52;;;;;;;14.67;36.91;150972.81;5096802;28;20036;-67
2023/04/12 05:57:11;;;;;;;32.25;20.90;;;;;;;14.63;37.42;150963.78;5081760;28;20036;-67
2023/04/12 05:59:37;;;;;;;35.78;19.38;;;;;;;14.72;37.58;150985.72;5093517;28;20036;-66
2023/04/12 06:02:03;;;;;;;30.85;19.00;;;;;;;15.18;36.60;151101.47;5085013;28;20074;-65
2023/04/12 06:04:29;;;;;;;32.10;19.38;;;;;;;15.61;35.92;151208.31;5082340;28;20324;-65
2023/04/12 06:06:55;;;;;;;29.10;18.35;;;;;;;15.51;34.35;151183.84;5081737;28;20032;-67
2023/04/12 06:09:21;;;;;;;27.80;16.42;;;;;;;15.89;33.95;151277.91;5082111;28;20024;-64
2023/04/12 06:11:46;;;;;;;29.73;17.20;;;;;;;15.86;33.91;151270.13;5087711;28;20016;-67
2023/04/12 06:14:12;;;;;;;24.17;16.45;;;;;;;16.20;33.54;151355.13;5091878;28;20039;-66
2023/04/12 06:16:38;;;;;;;22.95;14.07;;;;;;;15.99;32.72;151303.63;5092684;28;20024;-65
2023/04/12 06:19:04;;;;;;;28.30;14.50;;;;;;;16.07;32.73;151321.66;5094126;28;20028;-66
2023/04/12 06:21:30;;;;;;;20.88;13.23;;;;;;;16.65;32.64;151467.22;5095003;28;20118;-66
2023/04/12 06:23:55;;;;;;;22.95;13.43;;;;;;;16.48;31.90;151424.69;5095080;28;20024;-67
2023/04/12 06:26:21;;;;;;;24.52;12.27;;;;;;;16.60;33.26;151454.31;5095430;28;20221;-66
2023/04/12 06:28:46;;;;;;;20.92;12.05;;;;;;;16.64;33.46;151465.91;5093738;28;20028;-67
2023/04/12 06:31:12;;;;;;;21.90;12.88;;;;;;;16.79;32.58;151503.28;5089751;28;20035;-65
2023/04/12 06:33:38;;;;;;;19.15;11.57;;;;;;;16.89;31.42;151527.81;5094426;28;20036;-66
2023/04/12 06:36:04;;;;;;;19.35;11.98;;;;;;;17.17;31.45;151597.38;5087853;28;20023;-66
2023/04/12 06:38:29;;;;;;;22.73;12.18;;;;;;;17.17;31.62;151598.69;5094168;28;20247;-66
2023/04/12 06:40:55;;;;;;;60.65;14.60;;;;;;;17.48;32.08;151675.97;5095660;28;20028;-66
2023/04/12 06:43:21;;;;;;;17.27;12.30;;;;;;;17.44;31.22;151665.66;5093829;28;20028;-66
2023/04/12 06:45:48;;;;;;;37.80;13.95;;;;;;;17.52;32.01;151686.31;5096441;28;20038;-66
2023/04/12 06:48:14;;;;;;;23.33;13.20;;;;;;;17.53;32.05;151687.56;5092424;28;20032;-67
2023/04/12 06:50:40;;;;;;;24.42;13.05;;;;;;;17.79;30.48;151752.06;5092710;28;20024;-66
2023/04/12 06:53:06;;;;;;;23.88;13.23;;;;;;;17.86;31.25;151771.41;5096429;28;20051;-67
2023/04/12 06:55:32;;;;;;;22.98;13.30;;;;;;;17.99;30.23;151803.69;5091313;28;20028;-67
2023/04/12 06:57:57;;;;;;;28.80;13.82;;;;;;;18.02;30.48;151811.41;5093973;28;20048;-67
2023/04/12 07:00:23;;;;;;;20.45;13.43;;;;;;;18.40;31.96;151905.56;5089408;28;20025;-67
2023/04/12 07:02:49;;;;;;;26.27;15.57;;;;;;;18.57;30.39;151949.41;5096892;28;20198;-67
2023/04/12 07:05:15;;;;;;;20.33;14.20;;;;;;;18.54;28.77;151941.69;5095559;28;20032;-67
2023/04/12 07:07:40;;;;;;;30.33;16.23;;;;;;;18.01;29.26;151808.81;5093278;28;20075;-67
2023/04/12 07:10:06;;;;;;;26.55;15.88;;;;;;;19.11;28.88;152084.94;5093775;28;20020;-67
2023/04/12 07:12:32;;;;;;;27.88;18.75;;;;;;;19.38;28.54;152152.06;5092647;28;20041;-67
2023/04/12 07:14:58;;;;;;;28.95;17.55;;;;;;;19.59;28.84;152203.66;5094885;28;20205;-67
2023/04/12 07:17:25;;;;;;;22.60;16.60;;;;;;;20.33;27.73;152389.63;5093086;28;20029;-68
2023/04/12 07:19:53;;;;;;;28.45;17.77;;;;;;;20.72;27.51;152487.84;5095375;28;20036;-68
2023/04/12 07:22:19;;;;;;;29.55;18.85;;;;;;;21.00;27.29;152558.91;5088882;28;20036;-71
2023/04/12 07:24:45;;;;;;;28.73;20.48;;;;;;;20.58;26.92;152451.63;5083334;28;20198;-68
2023/04/12 07:27:10;;;;;;;34.13;21.25;;;;;;;21.13;27.59;152591.19;5095527;28;20048;-67
2023/04/12 07:29:36;;;;;;;33.38;20.65;;;;;;;21.17;26.99;152601.53;5083266;28;20186;-71
2023/04/12 07:32:03;;;;;;;27.73;18.95;;;;;;;21.68;28.11;152729.56;5088474;28;20258;-67
2023/04/12 07:34:29;;;;;;;28.10;20.65;;;;;;;21.76;27.02;152747.66;5093826;28;20031;-67
2023/04/12 07:36:55;;;;;;;27.65;20.17;;;;;;;20.62;25.79;152461.97;5102807;28;20052;-66
2023/04/12 07:39:20;;;;;;;24.70;18.40;;;;;;;20.50;25.61;152433.53;5092603;28;20036;-69
2023/04/12 07:41:47;;;;;;;30.67;17.40;;;;;;;20.32;27.29;152388.38;5091262;28;20042;-68
2023/04/12 07:44:13;;;;;;;25.80;17.45;;;;;;;20.18;27.12;152353.50;5095091;28;20088;-67
2023/04/12 07:46:40;;;;;;;24.15;16.58;;;;;;;19.18;26.89;152101.69;5091752;28;20305;-67
2023/04/12 07:49:06;;;;;;;25.73;15.23;;;;;;;19.40;26.62;152155.94;5094176;28;20067;-68
2023/04/12 07:51:32;;;;;;;25.65;17.30;;;;;;;19.16;26.14;152095.28;5094164;28;20097;-67
2023/04/12 07:53:57;;;;;;;26.48;18.17;;;;;;;19.14;27.76;152092.69;5092447;28;20345;-67
2023/04/12 07:56:23;;;;;;;30.90;18.33;;;;;;;19.23;26.26;152114.59;5088513;28;20096;-67
2023/04/12 07:58:49;;;;;;;30.38;19.85;;;;;;;19.08;26.57;152077.22;5090287;28;20021;-67
2023/04/12 08:01:15;;;;;;;28.85;19.27;;;;;;;19.24;26.78;152115.88;5091742;28;20225;-68
2023/04/12 08:03:41;;;;;;;26.63;20.08;;;;;;;19.49;26.99;152180.41;5100014;28;20021;-69
2023/04/12 08:06:07;;;;;;;28.35;20.17;;;;;;;18.42;26.92;151912.00;5083754;28;20031;-67
2023/04/12 08:08:32;;;;;;;31.73;20.65;;;;;;;18.67;26.85;151973.94;5083600;28;20117;-67
2023/04/12 08:11:00;;;;;;;28.90;19.35;;;;;;;19.35;28.43;152144.28;5097687;28;20351;-68
2023/04/12 08:13:26;;;;;;;22.92;18.15;;;;;;;19.21;27.31;152108.16;5093717;28;20216;-68
2023/04/12 08:15:51;;;;;;;29.00;19.90;;;;;;;18.58;26.93;151952.00;5088409;28;20032;-67
2023/04/12 08:18:17;;;;;;;26.40;17.85;;;;;;;19.11;28.19;152084.94;5103370;28;20032;-68
2023/04/12 08:20:43;;;;;;;27.48;18.55;;;;;;;19.19;27.24;152104.28;5082938;28;20028;-68
2023/04/12 08:23:12;;;;;;;20.23;15.45;;;;;;;19.16;26.51;152095.28;5098679;28;20095;-67
2023/04/12 08:25:38;;;;;;;15.75;13.13;;;;;;;19.30;26.93;152132.66;5091937;28;20093;-68
2023/04/12 08:28:06;;;;;;;18.98;13.10;;;;;;;19.09;27.39;152078.47;5096535;28;20027;-68
2023/04/12 08:30:31;;;;;;;17.85;12.93;;;;;;;19.48;26.92;152177.84;5101627;28;20031;-67
2023/04/12 08:32:57;;;;;;;20.83;13.98;;;;;;;18.76;26.77;151995.84;5101503;28;20024;-66
2023/04/12 08:35:23;;;;;;;23.52;14.45;;;;;;;18.76;26.60;151995.84;5085810;28;20040;-66
2023/04/12 08:37:48;;;;;;;17.33;14.63;;;;;;;19.06;26.53;152070.75;5095860;28;20051;-66
2023/04/12 08:40:14;;;;;;;17.30;11.85;;;;;;;18.10;27.59;151830.78;5094233;28;20024;-67
2023/04/12 08:42:40;;;;;;;12.95;11.40;;;;;;;17.30;27.76;151629.59;5082572;28;20016;-70
2023/04/12 08:45:07;;;;;;;14.45;11.63;;;;;;;17.02;28.19;151561.28;5082752;28;20221;-65
2023/04/12 08:47:35;;;;;;;15.35;11.93;;;;;;;17.99;27.97;151802.41;5101193;28;20031;-65
2023/04/12 08:50:02;;;;;;;18.42;11.30;;;;;;;18.08;27.17;151825.59;5088580;28;20028;-65
2023/04/12 08:52:32;;;;;;;13.77;11.05;;;;;;;17.71;27.32;151733.97;5083201;28;20059;-66
2023/04/12 08:55:02;;;;;;;13.20;11.02;;;;;;;17.80;27.82;151754.63;5087976;28;20035;-65
2023/04/12 08:57:28;;;;;;;13.40;10.43;;;;;;;17.87;27.01;151772.66;5102016;28;20043;-66
2023/04/12 08:59:55;;;;;;;16.48;10.52;;;;;;;18.17;28.09;151848.81;5082572;28;20020;-65
2023/04/12 09:02:21;;;;;;;12.43;10.00;;;;;;;18.75;27.12;151993.25;5081427;28;20240;-65
2023/04/12 09:04:48;;;;;;;15.52;10.55;;;;;;;19.03;26.65;152064.28;5091616;28;20020;-66
2023/04/12 09:07:13;;;;;;;17.35;11.40;;;;;;;19.22;26.53;152110.75;5090012;28;20055;-66
2023/04/12 09:09:43;;;;;;;10.88;8.50;;;;;;;19.16;25.40;152095.28;5100206;28;20024;-67
2023/04/12 09:12:10;;;;;;;10.93;7.47;;;;;;;18.69;25.75;151979.06;5082540;28;20032;-66
2023/04/12 09:14:36;;;;;;;16.98;8.00;;;;;;;19.03;26.32;152064.28;5101781;28;20032;-66
2023/04/12 09:17:02;;;;;;;12.75;9.00;;;;;;;19.18;26.12;152101.69;5088375;28;20108;-68
2023/04/12 09:19:35;;;;;;;13.52;9.32;;;;;;;19.39;25.30;152154.59;5082716;28;20032;-66
2023/04/12 09:22:01;;;;;;;11.43;10.27;;;;;;;19.62;26.90;152211.41;5089507;28;20045;-67
2023/04/12 09:24:28;;;;;;;12.88;10.30;;;;;;;19.71;26.87;152234.66;5085469;28;20105;-66
2023/04/12 09:27:05;;;;;;;15.95;10.70;;;;;;;19.54;26.33;152190.75;5094256;28;20039;-68
2023/04/12 09:29:33;;;;;;;14.02;10.85;;;;;;;18.63;25.88;151963.59;5084671;28;20085;-67
2023/04/12 09:32:09;;;;;;;9.95;8.90;;;;;;;18.29;26.71;151879.75;5092400;28;20059;-66
2023/04/12 09:34:36;;;;;;;15.63;9.65;;;;;;;18.63;26.53;151963.59;5080992;28;20048;-66
2023/04/12 09:37:15;;;;;;;11.52;8.68;;;;;;;18.07;26.64;151823.00;5082310;28;20032;-67
2023/04/12 09:39:42;;;;;;;11.32;8.77;;;;;;;17.48;26.70;151674.72;5082392;28;20092;-67
2023/04/12 09:42:10;;;;;;;11.50;8.45;;;;;;;17.41;26.55;151659.25;5101828;28;20028;-66
2023/04/12 09:44:36;;;;;;;9.88;7.75;;;;;;;18.07;27.14;151823.00;5083932;28;20348;-67
2023/04/12 09:47:03;;;;;;;14.23;8.23;;;;;;;18.25;26.61;151868.16;5089326;28;20032;-67
2023/04/12 09:49:39;;;;;;;12.20;7.78;;;;;;;18.38;26.27;151901.66;5091921;28;20066;-67
2023/04/12 09:52:06;;;;;;;10.55;7.95;;;;;;;18.38;25.70;151901.66;5096648;28;20098;-65
2023/04/12 09:54:37;;;;;;;13.02;8.27;;;;;;;18.33;25.61;151888.78;5086290;28;20197;-68
2023/04/12 09:57:07;;;;;;;12.63;8.65;;;;;;;18.45;25.72;151919.78;5091951;28;20101;-69
2023/04/12 09:59:36;;;;;;;12.23;8.95;;;;;;;18.47;27.04;151923.63;5086518;28;20221;-69
2023/04/12 10:02:10;;;;;;;13.00;9.77;;;;;;;18.61;27.86;151959.75;5100195;28;20047;-67
2023/04/12 10:04:38;;;;;;;11.90;8.60;;;;;;;18.87;26.69;152022.97;5096173;28;20030;-68
2023/04/12 10:07:05;;;;;;;11.85;8.80;;;;;;;18.85;25.67;152017.78;5105391;28;20048;-67
2023/04/12 10:09:37;;;;;;;14.48;9.43;;;;;;;18.44;26.59;151915.84;5105244;28;20084;-68
2023/04/12 10:12:03;;;;;;;13.93;9.30;;;;;;;18.17;26.57;151848.81;5085686;28;20016;-67
2023/04/12 10:14:30;;;;;;;15.57;8.95;;;;;;;18.25;26.93;151869.41;5103334;28;20076;-68
2023/04/12 10:16:58;;;;;;;13.85;9.10;;;;;;;18.25;26.22;151869.41;5092737;28;20095;-68
2023/04/12 10:19:29;;;;;;;15.10;9.05;;;;;;;18.23;26.91;151863.00;5094076;28;20024;-68
2023/04/12 10:21:58;;;;;;;10.77;8.43;;;;;;;18.44;26.01;151915.84;5101642;28;20052;-69
2023/04/12 10:24:26;;;;;;;14.68;8.23;;;;;;;18.41;26.50;151909.44;5085688;28;20036;-68
2023/04/12 10:26:54;;;;;;;13.20;8.48;;;;;;;18.59;25.84;151953.28;5085479;28;20092;-68
2023/04/12 10:29:35;;;;;;;10.57;8.07;;;;;;;18.54;25.66;151941.69;5101490;28;20312;-67
2023/04/12 10:32:19;;;;;;;12.02;8.57;;;;;;;18.63;26.29;151964.88;5102551;28;20324;-67
2023/04/12 10:34:52;;;;;;;13.77;8.95;;;;;;;18.44;26.15;151915.84;5096314;28;20092;-68
2023/04/12 10:37:19;;;;;;;8.93;8.02;;;;;;;18.71;26.32;151984.25;5096879;28;20040;-68
2023/04/12 10:39:51;;;;;;;10.60;8.45;;;;;;;18.69;26.21;151979.06;5092805;28;20024;-69
2023/04/12 10:42:28;;;;;;;12.27;8.68;;;;;;;18.66;25.75;151970.06;5093314;28;20032;-68
2023/04/12 10:45:22;;;;;;;11.32;8.93;;;;;;;18.35;25.73;151893.94;5095316;28;20032;-68
2023/04/12 10:47:47;;;;;;;15.00;10.07;;;;;;;18.09;25.80;151829.44;5093843;28;20025;-68
2023/04/12 10:50:25;;;;;;;13.10;8.68;;;;;;;18.54;25.77;151940.38;5090319;28;20047;-68
2023/04/12 10:53:12;;;;;;;14.45;7.63;;;;;;;18.46;26.43;151921.03;5091550;28;20098;-67
2023/04/12 10:55:43;;;;;;;12.23;8.43;;;;;;;18.74;25.44;151990.69;5092240;28;20027;-68
2023/04/12 10:58:09;;;;;;;12.30;8.27;;;;;;;18.83;25.59;152013.91;5093819;28;20027;-67
2023/04/12 11:00:57;;;;;;;12.23;8.18;;;;;;;18.75;25.35;151994.53;5092268;28;20036;-66
2023/04/12 11:03:24;;;;;;;10.30;8.55;;;;;;;18.85;25.61;152017.78;5091116;28;20055;-67
2023/04/12 11:06:16;;;;;;;13.02;9.45;;;;;;;18.98;24.01;152051.38;5094973;28;20028;-68
2023/04/12 11:08:42;;;;;;;10.68;7.88;;;;;;;18.96;24.92;152046.22;5090530;28;20045;-67
2023/04/12 11:11:32;;;;;;;11.65;8.18;;;;;;;18.99;23.94;152052.69;5094278;28;20079;-67
2023/04/12 11:13:58;;;;;;;13.93;8.90;;;;;;;18.87;24.65;152024.28;5092323;28;20036;-69
2023/04/12 11:16:24;;;;;;;10.45;8.02;;;;;;;18.79;24.26;152003.59;5093976;28;20035;-68
2023/04/12 11:18:50;;;;;;;11.40;8.18;;;;;;;18.92;25.63;152035.91;5087965;28;20217;-68